To NAV CANADA Home Page Login to a new session Search on AWWS site Feedback and Comments Disclaimer Vers la page française équivalente Tips FAQ What's new on the site To the Forecasts and Observations / NOTAM section To "File a Flight Plan" website Publications and other links Update of the User's profile FIC Telephone Numbers My Weather Data Folder Route Weather Data Regional Weather Data Local Weather Data To the Forecasts and Observations / NOTAM section
Request Generated 12/10/2016 at 16:29:18 UTC . Weather information available at that time is displayed.

METAR/TAF

SLAVE LAKE/AB    (show WxCam)

METAR CYZH 101600Z AUTO 12007KT 9SM SCT150 BKN180 M28/M31 A3005 RMK
SLP249=
METAR CYZH 101500Z AUTO 12008KT 9SM CLR M28/M31 A3007 RMK SLP254=
METAR CYZH 101400Z AUTO 12008KT 9SM CLR M27/M30 A3008 RMK SLP258=

TAF CYZH 101238Z 1013/1101 10006KT P6SM SKC
BECMG 1020/1022 29005KT
RMK FCST BASED ON AUTO OBS. NXT FCST BY 101900Z=
Your time UTC time
Weather data provided by Environment Canada and NAV CANADA